Terminal Aerodrome Forecast
Issued by NWS

Home | Current Version | Previous Version | Text Only | Print | Product List | Glossary On
Versions: 1 2 3 4 5 6 7 8 9 10 11 12 13 14 15 16 17 18 19 20
000
FTUS43 KDTX 302338
TAFPTK
TAF
KPTK 302338Z 0100/0124 06010KT 6SM -SHRA SCT007 BKN015
      TEMPO 0100/0103 4SM -RA OVC007
     FM010300 06010KT 4SM -SHRA BR BKN007 OVC015
     FM010800 08005KT 2SM -SHRA BR OVC004
     FM011300 08005KT 4SM -SHRA BR OVC008
     FM011700 10005KT 6SM -SHRA OVC012
     FM012200 13005KT 6SM -SHRA BKN025 OVC040=

USA.gov is the U.S. government's official web portal to all federal, state and local government web resources and services.